EZY93MK EGKK-LGRP
Flight info
| Callsign | EZY93MK |
|---|---|
| Flight time | N/A |
| Altitude | 37000 |
| Route | ODVIK Y311 DVR UL9 KONAN DCT KOK DCT REMBA DCT LIRSU DCT LALMI DCT ABTAL DCT LATLO DCT OBEDI DCT KFT DCT OLEZE DCT TEBLI DCT MEDUX UM867 KOGAT DCT ERANA DCT TSL UN130 MES UN139 LURUS UL995 CODIC |
| Aircraft | A320/M-SDE2E3FGHIJ1RWXYZ/LB1 |
Departure
| Time | N/A |
|---|---|
| Airport | London Gatwick Airport (EGKK) |
Arrival
| Time | 2026-04-29 15:31 |
|---|---|
| Airport | Rhodes International Airport "Diagoras" (LGRP) |
| Time | Latitude | Longitude | Altitude | Speed | Heading |
|---|---|---|---|---|---|
| 2026-04-29 13:45 | 44.64831 | 17.46674 | 37207 ft | 486 kts | 138° |
| 2026-04-29 13:45 | 44.60063 | 17.53386 | 37176 ft | 485 kts | 138° |
| 2026-04-29 13:46 | 44.55288 | 17.60084 | 37179 ft | 485 kts | 138° |
| 2026-04-29 13:46 | 44.50546 | 17.66721 | 37192 ft | 485 kts | 138° |
| 2026-04-29 13:47 | 44.45769 | 17.73392 | 37177 ft | 485 kts | 138° |
| 2026-04-29 13:47 | 44.40988 | 17.80060 | 37174 ft | 485 kts | 138° |
| 2026-04-29 13:48 | 44.36202 | 17.86712 | 37183 ft | 485 kts | 139° |
| 2026-04-29 13:48 | 44.31412 | 17.93355 | 37147 ft | 485 kts | 138° |
| 2026-04-29 13:49 | 44.26621 | 17.99995 | 37151 ft | 485 kts | 138° |
| 2026-04-29 13:49 | 44.21826 | 18.06620 | 37154 ft | 485 kts | 139° |
| 2026-04-29 13:50 | 44.17020 | 18.13231 | 37161 ft | 485 kts | 139° |
| 2026-04-29 13:50 | 44.12213 | 18.19823 | 37125 ft | 485 kts | 139° |
| 2026-04-29 13:51 | 44.07405 | 18.26410 | 37105 ft | 485 kts | 139° |
| 2026-04-29 13:51 | 44.02598 | 18.32974 | 37103 ft | 484 kts | 139° |
| 2026-04-29 13:52 | 43.97802 | 18.39524 | 37103 ft | 483 kts | 139° |
| 2026-04-29 13:52 | 43.93009 | 18.46053 | 37097 ft | 483 kts | 139° |
| 2026-04-29 13:53 | 43.88209 | 18.52567 | 37092 ft | 482 kts | 139° |
| 2026-04-29 13:53 | 43.83408 | 18.59055 | 37060 ft | 482 kts | 139° |
| 2026-04-29 13:54 | 43.78600 | 18.65546 | 37091 ft | 482 kts | 139° |
| 2026-04-29 13:54 | 43.73825 | 18.71988 | 37078 ft | 482 kts | 139° |
| 2026-04-29 13:55 | 43.69006 | 18.78458 | 37063 ft | 483 kts | 139° |
| 2026-04-29 13:55 | 43.64184 | 18.84936 | 37057 ft | 483 kts | 139° |
| 2026-04-29 13:56 | 43.59348 | 18.91403 | 37036 ft | 483 kts | 139° |
| 2026-04-29 13:56 | 43.54513 | 18.97861 | 37049 ft | 483 kts | 139° |
| 2026-04-29 13:57 | 43.49711 | 19.04260 | 37063 ft | 483 kts | 139° |
| 2026-04-29 13:57 | 43.44874 | 19.10692 | 37066 ft | 483 kts | 139° |
| 2026-04-29 13:58 | 43.40032 | 19.17105 | 37067 ft | 483 kts | 139° |
| 2026-04-29 13:58 | 43.35183 | 19.23508 | 37060 ft | 483 kts | 139° |
| 2026-04-29 13:59 | 43.30340 | 19.29885 | 37063 ft | 481 kts | 139° |
| 2026-04-29 13:59 | 43.25532 | 19.36211 | 37070 ft | 480 kts | 139° |
| 2026-04-29 14:00 | 43.20702 | 19.42569 | 37069 ft | 480 kts | 139° |
| 2026-04-29 14:00 | 43.15869 | 19.48913 | 37077 ft | 480 kts | 139° |
| 2026-04-29 14:01 | 43.11066 | 19.55202 | 37066 ft | 481 kts | 139° |
| 2026-04-29 14:01 | 43.06222 | 19.61514 | 37053 ft | 480 kts | 139° |
| 2026-04-29 14:02 | 43.01368 | 19.67821 | 37051 ft | 481 kts | 139° |
| 2026-04-29 14:02 | 42.96499 | 19.74126 | 37055 ft | 482 kts | 139° |
| 2026-04-29 14:03 | 42.91638 | 19.80422 | 37064 ft | 482 kts | 139° |
| 2026-04-29 14:03 | 42.86800 | 19.86686 | 37059 ft | 482 kts | 139° |
| 2026-04-29 14:04 | 42.81916 | 19.92987 | 37060 ft | 482 kts | 139° |
| 2026-04-29 14:04 | 42.77025 | 19.99271 | 37075 ft | 482 kts | 140° |
| 2026-04-29 14:05 | 42.72484 | 20.05912 | 37076 ft | 484 kts | 131° |
| 2026-04-29 14:05 | 42.68211 | 20.12992 | 37076 ft | 484 kts | 131° |
| 2026-04-29 14:06 | 42.63933 | 20.20055 | 37070 ft | 483 kts | 131° |
| 2026-04-29 14:06 | 42.59650 | 20.27090 | 37067 ft | 482 kts | 131° |
| 2026-04-29 14:07 | 42.55379 | 20.34104 | 37052 ft | 482 kts | 131° |
| 2026-04-29 14:07 | 42.51128 | 20.41058 | 37055 ft | 481 kts | 131° |
| 2026-04-29 14:08 | 42.46842 | 20.48058 | 37059 ft | 481 kts | 131° |
| 2026-04-29 14:08 | 42.42562 | 20.55048 | 37059 ft | 481 kts | 131° |
| 2026-04-29 14:09 | 42.38271 | 20.62014 | 37063 ft | 481 kts | 132° |
| 2026-04-29 14:09 | 42.34013 | 20.68917 | 37062 ft | 480 kts | 131° |
| 2026-04-29 14:10 | 42.29720 | 20.75870 | 37042 ft | 480 kts | 132° |
| 2026-04-29 14:10 | 42.25435 | 20.82787 | 37057 ft | 480 kts | 131° |
| 2026-04-29 14:11 | 42.21143 | 20.89690 | 37050 ft | 480 kts | 131° |
| 2026-04-29 14:11 | 42.16853 | 20.96594 | 37045 ft | 479 kts | 132° |
| 2026-04-29 14:12 | 42.12580 | 21.03431 | 37035 ft | 479 kts | 132° |
| 2026-04-29 14:12 | 42.07923 | 21.09782 | 37027 ft | 476 kts | 139° |
| 2026-04-29 14:13 | 42.03086 | 21.15918 | 37008 ft | 477 kts | 139° |
| 2026-04-29 14:13 | 41.98251 | 21.22057 | 37010 ft | 477 kts | 139° |
| 2026-04-29 14:14 | 41.93433 | 21.28153 | 37018 ft | 477 kts | 139° |
| 2026-04-29 14:14 | 41.88598 | 21.34258 | 37009 ft | 476 kts | 139° |
| 2026-04-29 14:15 | 41.83794 | 21.40310 | 37018 ft | 476 kts | 139° |
| 2026-04-29 14:15 | 41.78941 | 21.46399 | 37014 ft | 476 kts | 139° |
| 2026-04-29 14:16 | 41.74130 | 21.52438 | 36999 ft | 476 kts | 139° |
| 2026-04-29 14:16 | 41.69296 | 21.58498 | 36999 ft | 475 kts | 139° |
| 2026-04-29 14:17 | 41.64468 | 21.64525 | 37012 ft | 475 kts | 139° |
| 2026-04-29 14:17 | 41.60453 | 21.69535 | 37016 ft | 475 kts | 139° |
| 2026-04-29 14:18 | 41.55613 | 21.75556 | 37020 ft | 475 kts | 139° |
| 2026-04-29 14:18 | 41.50739 | 21.81600 | 37005 ft | 475 kts | 140° |
| 2026-04-29 14:19 | 41.45895 | 21.87595 | 37024 ft | 475 kts | 140° |
| 2026-04-29 14:19 | 41.41090 | 21.93530 | 37030 ft | 474 kts | 140° |
| 2026-04-29 14:20 | 41.36228 | 21.99533 | 37031 ft | 474 kts | 139° |
| 2026-04-29 14:20 | 41.31420 | 22.05450 | 37035 ft | 473 kts | 140° |
| 2026-04-29 14:21 | 41.26584 | 22.11384 | 37044 ft | 473 kts | 140° |
| 2026-04-29 14:21 | 41.21751 | 22.17318 | 37035 ft | 473 kts | 140° |
| 2026-04-29 14:22 | 41.16917 | 22.23231 | 37038 ft | 472 kts | 140° |
| 2026-04-29 14:22 | 41.11952 | 22.28928 | 37046 ft | 471 kts | 143° |
| 2026-04-29 14:23 | 41.06813 | 22.34323 | 37057 ft | 471 kts | 144° |
| 2026-04-29 14:23 | 41.01665 | 22.39686 | 37057 ft | 471 kts | 144° |
| 2026-04-29 14:24 | 40.96540 | 22.45155 | 37058 ft | 472 kts | 143° |
| 2026-04-29 14:24 | 40.91454 | 22.50630 | 37063 ft | 471 kts | 143° |
| 2026-04-29 14:25 | 40.86371 | 22.56083 | 37070 ft | 470 kts | 143° |
| 2026-04-29 14:25 | 40.81291 | 22.61499 | 37076 ft | 469 kts | 143° |
| 2026-04-29 14:26 | 40.76231 | 22.66858 | 37077 ft | 469 kts | 143° |
| 2026-04-29 14:26 | 40.71144 | 22.72245 | 37065 ft | 468 kts | 143° |
| 2026-04-29 14:27 | 40.66057 | 22.77624 | 37077 ft | 468 kts | 143° |
| 2026-04-29 14:28 | 40.58469 | 22.85643 | 37089 ft | 468 kts | 143° |
| 2026-04-29 14:28 | 40.53381 | 22.91012 | 37089 ft | 468 kts | 143° |
| 2026-04-29 14:29 | 40.48282 | 22.96369 | 37089 ft | 468 kts | 143° |
| 2026-04-29 14:29 | 40.43503 | 23.02117 | 37087 ft | 470 kts | 135° |
| 2026-04-29 14:30 | 40.39008 | 23.08362 | 37082 ft | 470 kts | 135° |
| 2026-04-29 14:30 | 40.34496 | 23.14585 | 37083 ft | 470 kts | 135° |
| 2026-04-29 14:31 | 40.29966 | 23.20805 | 37077 ft | 471 kts | 135° |
| 2026-04-29 14:31 | 40.25475 | 23.26982 | 37076 ft | 471 kts | 135° |
| 2026-04-29 14:32 | 40.20949 | 23.33209 | 37078 ft | 471 kts | 135° |
| 2026-04-29 14:32 | 40.16442 | 23.39389 | 37059 ft | 470 kts | 135° |
| 2026-04-29 14:33 | 40.11905 | 23.45591 | 37077 ft | 470 kts | 135° |
| 2026-04-29 14:33 | 40.07399 | 23.51728 | 37088 ft | 470 kts | 135° |
| 2026-04-29 14:34 | 40.02871 | 23.57892 | 37087 ft | 469 kts | 135° |
| 2026-04-29 14:34 | 39.98342 | 23.64052 | 37087 ft | 469 kts | 135° |
| 2026-04-29 14:35 | 39.93833 | 23.70158 | 37086 ft | 469 kts | 135° |
| 2026-04-29 14:35 | 39.89299 | 23.76298 | 37091 ft | 469 kts | 135° |
| 2026-04-29 14:36 | 39.84791 | 23.82386 | 37086 ft | 469 kts | 135° |
| 2026-04-29 14:36 | 39.80256 | 23.88491 | 37089 ft | 469 kts | 135° |
| 2026-04-29 14:37 | 39.75714 | 23.94597 | 37093 ft | 469 kts | 135° |
| 2026-04-29 14:37 | 39.71176 | 24.00696 | 37094 ft | 469 kts | 135° |
| 2026-04-29 14:38 | 39.66640 | 24.06785 | 37092 ft | 469 kts | 135° |
| 2026-04-29 14:38 | 39.62121 | 24.12822 | 37095 ft | 469 kts | 136° |
| 2026-04-29 14:39 | 39.57558 | 24.18904 | 37083 ft | 469 kts | 136° |
| 2026-04-29 14:39 | 39.53004 | 24.24971 | 37088 ft | 468 kts | 136° |
| 2026-04-29 14:40 | 39.48456 | 24.31013 | 37094 ft | 468 kts | 136° |
| 2026-04-29 14:40 | 39.43908 | 24.37045 | 37094 ft | 468 kts | 136° |
| 2026-04-29 14:41 | 39.39384 | 24.43031 | 37094 ft | 468 kts | 136° |
| 2026-04-29 14:41 | 39.34824 | 24.49044 | 37094 ft | 468 kts | 136° |
| 2026-04-29 14:42 | 39.30281 | 24.55078 | 37089 ft | 468 kts | 135° |
| 2026-04-29 14:42 | 39.25767 | 24.61138 | 37094 ft | 468 kts | 135° |
| 2026-04-29 14:43 | 39.21254 | 24.67183 | 37088 ft | 468 kts | 135° |
| 2026-04-29 14:43 | 39.16726 | 24.73215 | 37089 ft | 468 kts | 135° |
| 2026-04-29 14:44 | 39.12194 | 24.79234 | 37092 ft | 468 kts | 135° |
| 2026-04-29 14:44 | 39.07645 | 24.85231 | 37093 ft | 468 kts | 136° |
| 2026-04-29 14:45 | 39.03056 | 24.91163 | 37091 ft | 468 kts | 136° |
| 2026-04-29 14:45 | 38.98458 | 24.97083 | 37074 ft | 468 kts | 136° |
| 2026-04-29 14:46 | 38.93871 | 25.03007 | 37086 ft | 468 kts | 136° |
| 2026-04-29 14:46 | 38.89283 | 25.08929 | 37086 ft | 468 kts | 136° |
| 2026-04-29 14:47 | 38.84699 | 25.14854 | 37090 ft | 468 kts | 136° |
| 2026-04-29 14:47 | 38.80108 | 25.20760 | 37089 ft | 467 kts | 136° |
| 2026-04-29 14:48 | 38.75507 | 25.26648 | 37081 ft | 467 kts | 136° |
| 2026-04-29 14:48 | 38.70904 | 25.32529 | 37066 ft | 467 kts | 136° |
| 2026-04-29 14:49 | 38.66314 | 25.38413 | 37084 ft | 467 kts | 136° |
| 2026-04-29 14:49 | 38.61718 | 25.44286 | 37089 ft | 467 kts | 136° |
| 2026-04-29 14:50 | 38.57122 | 25.50145 | 37087 ft | 466 kts | 136° |
| 2026-04-29 14:50 | 38.52522 | 25.55987 | 37078 ft | 466 kts | 136° |
| 2026-04-29 14:51 | 38.47924 | 25.61818 | 37077 ft | 466 kts | 137° |
| 2026-04-29 14:51 | 38.43315 | 25.67635 | 37072 ft | 466 kts | 137° |
| 2026-04-29 14:52 | 38.38710 | 25.73447 | 37072 ft | 466 kts | 137° |
| 2026-04-29 14:52 | 38.34109 | 25.79254 | 37065 ft | 466 kts | 137° |
| 2026-04-29 14:53 | 38.29513 | 25.85067 | 37066 ft | 465 kts | 137° |
| 2026-04-29 14:53 | 38.24562 | 25.90293 | 37059 ft | 461 kts | 152° |
| 2026-04-29 14:54 | 38.18738 | 25.93506 | 37061 ft | 455 kts | 164° |
| 2026-04-29 14:54 | 38.12766 | 25.96205 | 37038 ft | 456 kts | 163° |
| 2026-04-29 14:55 | 38.06802 | 25.98935 | 37048 ft | 456 kts | 163° |
| 2026-04-29 14:55 | 38.00840 | 26.01656 | 37050 ft | 455 kts | 163° |
| 2026-04-29 14:56 | 37.94875 | 26.04367 | 37051 ft | 455 kts | 163° |
| 2026-04-29 14:56 | 37.88909 | 26.07062 | 37030 ft | 455 kts | 163° |
| 2026-04-29 14:57 | 37.82940 | 26.09759 | 37040 ft | 455 kts | 163° |
| 2026-04-29 14:57 | 37.76978 | 26.12453 | 37046 ft | 455 kts | 163° |
| 2026-04-29 14:58 | 37.71018 | 26.15140 | 37048 ft | 455 kts | 163° |
| 2026-04-29 14:58 | 37.65048 | 26.17836 | 37052 ft | 455 kts | 163° |
| 2026-04-29 14:59 | 37.59107 | 26.20503 | 37052 ft | 455 kts | 163° |
| 2026-04-29 14:59 | 37.54146 | 26.22729 | 37051 ft | 455 kts | 163° |
| 2026-04-29 15:00 | 37.48172 | 26.25408 | 37048 ft | 455 kts | 163° |
| 2026-04-29 15:00 | 37.42189 | 26.28076 | 37048 ft | 455 kts | 163° |
| 2026-04-29 15:01 | 37.36242 | 26.30727 | 37047 ft | 455 kts | 163° |
| 2026-04-29 15:01 | 37.30254 | 26.33386 | 37046 ft | 455 kts | 163° |
| 2026-04-29 15:02 | 37.24307 | 26.36026 | 37047 ft | 455 kts | 163° |
| 2026-04-29 15:02 | 37.18320 | 26.38686 | 37038 ft | 455 kts | 163° |
| 2026-04-29 15:03 | 37.12355 | 26.41336 | 37029 ft | 455 kts | 163° |
| 2026-04-29 15:03 | 37.06406 | 26.43976 | 37030 ft | 455 kts | 163° |
| 2026-04-29 15:04 | 37.00423 | 26.46622 | 36828 ft | 455 kts | 163° |
| 2026-04-29 15:04 | 36.97431 | 26.47938 | 36557 ft | 455 kts | 163° |
| 2026-04-29 15:04 | 36.94520 | 26.49343 | 36304 ft | 456 kts | 156° |
| 2026-04-29 15:04 | 36.91770 | 26.51372 | 36035 ft | 460 kts | 145° |
| 2026-04-29 15:05 | 36.89350 | 26.54005 | 35785 ft | 462 kts | 134° |
| 2026-04-29 15:05 | 36.87348 | 26.57140 | 35539 ft | 462 kts | 123° |
| 2026-04-29 15:05 | 36.85831 | 26.60686 | 35292 ft | 460 kts | 112° |
| 2026-04-29 15:05 | 36.84607 | 26.64295 | 34866 ft | 456 kts | 113° |
| 2026-04-29 15:06 | 36.83356 | 26.67937 | 34316 ft | 455 kts | 113° |
| 2026-04-29 15:06 | 36.82099 | 26.71572 | 33751 ft | 453 kts | 113° |
| 2026-04-29 15:06 | 36.80856 | 26.75167 | 33236 ft | 448 kts | 113° |
| 2026-04-29 15:06 | 36.79625 | 26.78730 | 32728 ft | 444 kts | 113° |
| 2026-04-29 15:07 | 36.78423 | 26.82215 | 32226 ft | 440 kts | 113° |
| 2026-04-29 15:07 | 36.77200 | 26.85759 | 31716 ft | 437 kts | 113° |
| 2026-04-29 15:07 | 36.76003 | 26.89221 | 31233 ft | 433 kts | 113° |
| 2026-04-29 15:07 | 36.74813 | 26.92657 | 30754 ft | 430 kts | 113° |
| 2026-04-29 15:08 | 36.73631 | 26.96059 | 30288 ft | 426 kts | 114° |
| 2026-04-29 15:08 | 36.72460 | 26.99432 | 29787 ft | 422 kts | 114° |
| 2026-04-29 15:08 | 36.71303 | 27.02770 | 29343 ft | 416 kts | 113° |
| 2026-04-29 15:08 | 36.70164 | 27.06058 | 28906 ft | 411 kts | 114° |
| 2026-04-29 15:09 | 36.69037 | 27.09300 | 28484 ft | 405 kts | 114° |
| 2026-04-29 15:09 | 36.67922 | 27.12498 | 28064 ft | 400 kts | 114° |
| 2026-04-29 15:09 | 36.66823 | 27.15650 | 27642 ft | 395 kts | 114° |
| 2026-04-29 15:09 | 36.65735 | 27.18773 | 27229 ft | 390 kts | 114° |
| 2026-04-29 15:10 | 36.64658 | 27.21854 | 26801 ft | 386 kts | 114° |
| 2026-04-29 15:10 | 36.63586 | 27.24906 | 26364 ft | 383 kts | 114° |
| 2026-04-29 15:10 | 36.62524 | 27.27931 | 25937 ft | 380 kts | 114° |
| 2026-04-29 15:10 | 36.61470 | 27.30935 | 25488 ft | 378 kts | 114° |
| 2026-04-29 15:11 | 36.60421 | 27.33922 | 25045 ft | 375 kts | 114° |
| 2026-04-29 15:11 | 36.59377 | 27.36893 | 24587 ft | 374 kts | 114° |
| 2026-04-29 15:11 | 36.58339 | 27.39848 | 24133 ft | 373 kts | 114° |
| 2026-04-29 15:11 | 36.57301 | 27.42797 | 23674 ft | 371 kts | 114° |
| 2026-04-29 15:12 | 36.56279 | 27.45700 | 23165 ft | 370 kts | 114° |
| 2026-04-29 15:12 | 36.55247 | 27.48624 | 22707 ft | 368 kts | 114° |
| 2026-04-29 15:12 | 36.54219 | 27.51524 | 22263 ft | 365 kts | 114° |
| 2026-04-29 15:12 | 36.53196 | 27.54408 | 21824 ft | 363 kts | 114° |
| 2026-04-29 15:13 | 36.52182 | 27.57274 | 21392 ft | 360 kts | 114° |
| 2026-04-29 15:13 | 36.51170 | 27.60122 | 20951 ft | 358 kts | 114° |
| 2026-04-29 15:13 | 36.50164 | 27.62951 | 20526 ft | 357 kts | 114° |
| 2026-04-29 15:13 | 36.49159 | 27.65772 | 20109 ft | 355 kts | 114° |
| 2026-04-29 15:14 | 36.48159 | 27.68578 | 19678 ft | 354 kts | 114° |
| 2026-04-29 15:14 | 36.47176 | 27.71343 | 19264 ft | 353 kts | 114° |
| 2026-04-29 15:14 | 36.46406 | 27.74241 | 18843 ft | 353 kts | 102° |
| 2026-04-29 15:14 | 36.45997 | 27.77246 | 18421 ft | 352 kts | 99° |
| 2026-04-29 15:15 | 36.45602 | 27.80244 | 17962 ft | 352 kts | 99° |
| 2026-04-29 15:15 | 36.45203 | 27.83247 | 17541 ft | 350 kts | 99° |
| 2026-04-29 15:15 | 36.44808 | 27.86187 | 17133 ft | 348 kts | 99° |
| 2026-04-29 15:15 | 36.44401 | 27.89154 | 16725 ft | 347 kts | 102° |
| 2026-04-29 15:16 | 36.43671 | 27.91996 | 16325 ft | 344 kts | 115° |
| 2026-04-29 15:16 | 36.42456 | 27.94530 | 15930 ft | 342 kts | 128° |
| 2026-04-29 15:16 | 36.41002 | 27.96870 | 15536 ft | 341 kts | 128° |
| 2026-04-29 15:16 | 36.39555 | 27.99201 | 15152 ft | 340 kts | 128° |
| 2026-04-29 15:17 | 36.38128 | 28.01502 | 14758 ft | 339 kts | 128° |
| 2026-04-29 15:17 | 36.36691 | 28.03819 | 14360 ft | 338 kts | 128° |
| 2026-04-29 15:17 | 36.35256 | 28.06135 | 13972 ft | 338 kts | 128° |
| 2026-04-29 15:17 | 36.33850 | 28.08471 | 13549 ft | 338 kts | 122° |
| 2026-04-29 15:18 | 36.33016 | 28.11156 | 13261 ft | 332 kts | 98° |
| 2026-04-29 15:18 | 36.33089 | 28.13951 | 13126 ft | 320 kts | 78° |
| 2026-04-29 15:18 | 36.33562 | 28.16640 | 12799 ft | 317 kts | 76° |
| 2026-04-29 15:18 | 36.34072 | 28.19305 | 12414 ft | 316 kts | 76° |
| 2026-04-29 15:19 | 36.34587 | 28.21963 | 12033 ft | 315 kts | 76° |
| 2026-04-29 15:19 | 36.35094 | 28.24567 | 11660 ft | 313 kts | 76° |
| 2026-04-29 15:19 | 36.35599 | 28.27167 | 11292 ft | 309 kts | 76° |
| 2026-04-29 15:19 | 36.36106 | 28.29754 | 10930 ft | 306 kts | 76° |
| 2026-04-29 15:20 | 36.36604 | 28.32307 | 10563 ft | 303 kts | 75° |
| 2026-04-29 15:20 | 36.37096 | 28.34828 | 10205 ft | 298 kts | 76° |
| 2026-04-29 15:20 | 36.37585 | 28.37306 | 9849 ft | 295 kts | 76° |
| 2026-04-29 15:20 | 36.38075 | 28.39790 | 9457 ft | 294 kts | 75° |
| 2026-04-29 15:21 | 36.38560 | 28.42246 | 9071 ft | 292 kts | 76° |
| 2026-04-29 15:21 | 36.39041 | 28.44659 | 8695 ft | 291 kts | 75° |
| 2026-04-29 15:21 | 36.39524 | 28.47089 | 8315 ft | 288 kts | 75° |
| 2026-04-29 15:21 | 36.40006 | 28.49509 | 7930 ft | 286 kts | 76° |
| 2026-04-29 15:22 | 36.40486 | 28.51897 | 7562 ft | 284 kts | 75° |
| 2026-04-29 15:22 | 36.41305 | 28.54091 | 7199 ft | 280 kts | 50° |
| 2026-04-29 15:22 | 36.42809 | 28.55571 | 6849 ft | 276 kts | 24° |
| 2026-04-29 15:22 | 36.44673 | 28.56015 | 6487 ft | 274 kts | 358° |
| 2026-04-29 15:23 | 36.46527 | 28.55622 | 6231 ft | 267 kts | 342° |
| 2026-04-29 15:23 | 36.48168 | 28.54657 | 6106 ft | 256 kts | 327° |
| 2026-04-29 15:23 | 36.49486 | 28.53286 | 5972 ft | 245 kts | 313° |
| 2026-04-29 15:23 | 36.50468 | 28.51608 | 5845 ft | 235 kts | 299° |
| 2026-04-29 15:24 | 36.51089 | 28.49761 | 5649 ft | 229 kts | 286° |
| 2026-04-29 15:24 | 36.51352 | 28.47821 | 5371 ft | 227 kts | 272° |
| 2026-04-29 15:24 | 36.51258 | 28.45870 | 5089 ft | 225 kts | 259° |
| 2026-04-29 15:24 | 36.50828 | 28.44025 | 4806 ft | 224 kts | 250° |
| 2026-04-29 15:25 | 36.50303 | 28.42209 | 4577 ft | 220 kts | 251° |
| 2026-04-29 15:25 | 36.49795 | 28.40448 | 4456 ft | 213 kts | 250° |
| 2026-04-29 15:25 | 36.49300 | 28.38735 | 4329 ft | 206 kts | 250° |
| 2026-04-29 15:25 | 36.48822 | 28.37084 | 4223 ft | 199 kts | 250° |
| 2026-04-29 15:26 | 36.48357 | 28.35481 | 4094 ft | 196 kts | 252° |
| 2026-04-29 15:26 | 36.47895 | 28.33887 | 3865 ft | 196 kts | 252° |
| 2026-04-29 15:26 | 36.47431 | 28.32286 | 3616 ft | 198 kts | 251° |
| 2026-04-29 15:26 | 36.46962 | 28.30669 | 3360 ft | 200 kts | 251° |
| 2026-04-29 15:27 | 36.46502 | 28.29087 | 3117 ft | 194 kts | 251° |
| 2026-04-29 15:27 | 36.46045 | 28.27516 | 2843 ft | 188 kts | 252° |
| 2026-04-29 15:27 | 36.45610 | 28.26018 | 2600 ft | 185 kts | 252° |
| 2026-04-29 15:27 | 36.45173 | 28.24515 | 2359 ft | 184 kts | 251° |
| 2026-04-29 15:28 | 36.44749 | 28.23062 | 2128 ft | 171 kts | 252° |
| 2026-04-29 15:28 | 36.44481 | 28.22140 | 1974 ft | 166 kts | 252° |
| 2026-04-29 15:28 | 36.43965 | 28.20367 | 1689 ft | 163 kts | 252° |
| 2026-04-29 15:28 | 36.43580 | 28.19046 | 1473 ft | 162 kts | 252° |
| 2026-04-29 15:29 | 36.43197 | 28.17733 | 1258 ft | 160 kts | 252° |
| 2026-04-29 15:29 | 36.42482 | 28.15285 | 836 ft | 144 kts | 252° |
| 2026-04-29 15:30 | 36.41818 | 28.13005 | 518 ft | 137 kts | 250° |
| 2026-04-29 15:30 | 36.41501 | 28.11894 | 337 ft | 135 kts | 249° |
| 2026-04-29 15:30 | 36.41185 | 28.10818 | 155 ft | 134 kts | 249° |
| 2026-04-29 15:30 | 36.40868 | 28.09741 | 31 ft | 129 kts | 249° |
| 2026-04-29 15:31 | 36.40606 | 28.08857 | 28 ft | 85 kts | 250° |
| 2026-04-29 15:31 | 36.40453 | 28.08338 | 27 ft | 51 kts | 250° |
| 2026-04-29 15:31 | 36.40365 | 28.08053 | 29 ft | 20 kts | 237° |
| 2026-04-29 15:31 | 36.40268 | 28.07943 | 28 ft | 17 kts | 220° |
| 2026-04-29 15:32 | 36.40203 | 28.07875 | 27 ft | 10 kts | 220° |
| 2026-04-29 15:32 | 36.40148 | 28.07842 | 27 ft | 9 kts | 164° |
| 2026-04-29 15:32 | 36.40142 | 28.07902 | 28 ft | 7 kts | 69° |
| 2026-04-29 15:32 | 36.40172 | 28.08001 | 29 ft | 15 kts | 70° |
| 2026-04-29 15:33 | 36.40201 | 28.08106 | 32 ft | 11 kts | 71° |
| 2026-04-29 15:33 | 36.40225 | 28.08191 | 30 ft | 10 kts | 70° |
| 2026-04-29 15:33 | 36.40257 | 28.08302 | 30 ft | 17 kts | 71° |
| 2026-04-29 15:33 | 36.40297 | 28.08450 | 29 ft | 19 kts | 70° |
| 2026-04-29 15:34 | 36.40343 | 28.08606 | 28 ft | 19 kts | 70° |
| 2026-04-29 15:34 | 36.40377 | 28.08723 | 26 ft | 11 kts | 70° |
| 2026-04-29 15:34 | 36.40395 | 28.08805 | 27 ft | 9 kts | 76° |
| 2026-04-29 15:34 | 36.40404 | 28.08871 | 28 ft | 9 kts | 86° |
| 2026-04-29 15:35 | 36.40400 | 28.08953 | 28 ft | 10 kts | 97° |
| 2026-04-29 15:35 | 36.40408 | 28.09036 | 27 ft | 10 kts | 74° |
| 2026-04-29 15:35 | 36.40428 | 28.09118 | 30 ft | 8 kts | 82° |
| 2026-04-29 15:35 | 36.40395 | 28.09143 | 29 ft | 6 kts | 165° |
| 2026-04-29 15:36 | 36.40373 | 28.09150 | 26 ft | 2 kts | 164° |
| 2026-04-29 15:36 | 36.40369 | 28.09152 | 27 ft | 0 kts | 164° |